Time;durP1;ratioP1;P1;durP2;ratioP2;P2;SDS_P1;SDS_P2;PMS_P1;PMS_P2;Temp;Humidity;BMP_temperature;BMP_pressure;BME280_temperature;BME280_humidity;BME280_pressure;Samples;Min_cycle;Max_cycle;Signal;HPM_P1;HPM_P2
2023/07/15 00:00:42;;;;;;;3.75;1.95;;;22.00;71.00;;;;;;4918000;29;20032;-60
2023/07/15 00:03:09;;;;;;;4.30;2.05;;;22.00;70.70;;;;;;4923127;29;20864;-59
2023/07/15 00:05:35;;;;;;;2.33;1.92;;;22.00;70.50;;;;;;4922201;29;20044;-59
2023/07/15 00:08:02;;;;;;;5.55;1.80;;;22.00;70.50;;;;;;4925205;29;20035;-60
2023/07/15 00:10:29;;;;;;;4.05;2.17;;;22.00;70.50;;;;;;4924394;29;20075;-60
2023/07/15 00:12:56;;;;;;;3.35;2.20;;;22.00;70.90;;;;;;4922750;29;20044;-59
2023/07/15 00:15:22;;;;;;;3.20;2.30;;;22.00;70.60;;;;;;4922155;29;20091;-59
2023/07/15 00:17:48;;;;;;;5.43;2.25;;;22.00;70.60;;;;;;4919923;29;20764;-60
2023/07/15 00:20:19;;;;;;;4.97;2.15;;;22.00;70.40;;;;;;4919394;29;20804;-59
2023/07/15 00:22:46;;;;;;;3.40;2.35;;;22.00;70.90;;;;;;4919905;29;20039;-60
2023/07/15 00:25:17;;;;;;;2.58;2.05;;;22.00;70.60;;;;;;4925843;29;20038;-59
2023/07/15 00:27:44;;;;;;;2.47;2.15;;;22.00;70.80;;;;;;4923188;29;20032;-60
2023/07/15 00:30:16;;;;;;;2.83;2.00;;;22.00;69.60;;;;;;4923619;29;20042;-60
2023/07/15 00:32:47;;;;;;;3.92;1.98;;;22.00;69.90;;;;;;4920950;29;20201;-60
2023/07/15 00:35:21;;;;;;;2.53;2.13;;;22.00;70.20;;;;;;4920445;29;20122;-60
2023/07/15 00:37:47;;;;;;;3.55;2.13;;;21.90;70.30;;;;;;4900805;29;20398;-60
2023/07/15 00:40:15;;;;;;;2.67;2.10;;;21.90;70.20;;;;;;4909667;29;20699;-59
2023/07/15 00:42:52;;;;;;;2.72;2.05;;;21.90;70.70;;;;;;4926079;29;20032;-60
2023/07/15 00:45:18;;;;;;;2.80;1.98;;;21.80;70.40;;;;;;4928250;29;20460;-59
2023/07/15 00:47:55;;;;;;;3.50;2.03;;;21.80;70.80;;;;;;4925377;29;20117;-59
2023/07/15 00:50:21;;;;;;;5.15;2.40;;;21.70;71.10;;;;;;4924571;29;20043;-60
2023/07/15 00:52:47;;;;;;;3.50;2.10;;;21.70;71.40;;;;;;4902711;29;20047;-59
2023/07/15 00:55:14;;;;;;;3.50;1.92;;;21.60;71.80;;;;;;4905001;29;20701;-60
2023/07/15 00:57:41;;;;;;;3.00;2.22;;;21.60;71.90;;;;;;4919658;29;20044;-60
2023/07/15 01:00:09;;;;;;;2.42;2.10;;;21.60;72.00;;;;;;4929005;29;20377;-60
2023/07/15 01:02:37;;;;;;;4.50;1.80;;;21.50;71.80;;;;;;4915571;29;20040;-60
2023/07/15 01:05:06;;;;;;;3.30;2.20;;;21.50;72.30;;;;;;4924511;29;20476;-59
2023/07/15 01:07:32;;;;;;;3.30;2.10;;;21.50;72.30;;;;;;4926509;29;20027;-60
2023/07/15 01:09:58;;;;;;;4.22;2.58;;;21.40;72.50;;;;;;4923985;29;20583;-60
2023/07/15 01:12:23;;;;;;;3.47;2.08;;;21.40;72.50;;;;;;4904089;29;20050;-59
2023/07/15 01:14:49;;;;;;;3.33;2.30;;;21.40;72.50;;;;;;4920873;29;20043;-60
2023/07/15 01:17:15;;;;;;;5.03;2.17;;;21.30;72.60;;;;;;4929202;29;20179;-59
2023/07/15 01:19:41;;;;;;;3.70;2.13;;;21.30;72.80;;;;;;4926976;29;20572;-60
2023/07/15 01:22:07;;;;;;;2.90;2.20;;;21.30;72.50;;;;;;4926884;29;20031;-60
2023/07/15 01:24:35;;;;;;;3.10;2.30;;;21.20;72.60;;;;;;4907067;29;20032;-60
2023/07/15 01:27:06;;;;;;;6.00;2.45;;;21.20;73.00;;;;;;4925963;29;20420;-60
2023/07/15 01:29:32;;;;;;;5.00;2.33;;;21.20;73.10;;;;;;4923984;29;20082;-60
2023/07/15 01:31:57;;;;;;;3.83;2.40;;;21.10;73.00;;;;;;4905077;29;20158;-60
2023/07/15 01:34:24;;;;;;;5.75;2.53;;;21.20;73.40;;;;;;4908261;29;20043;-60
2023/07/15 01:36:51;;;;;;;5.40;2.45;;;21.20;73.70;;;;;;4927163;29;20754;-59
2023/07/15 01:39:17;;;;;;;3.55;2.22;;;21.10;73.50;;;;;;4926946;29;20377;-60
2023/07/15 01:41:44;;;;;;;2.63;2.15;;;21.00;73.80;;;;;;4910816;29;20062;-60
2023/07/15 01:44:10;;;;;;;3.90;2.28;;;21.00;74.00;;;;;;4926368;29;20032;-60
2023/07/15 01:46:38;;;;;;;5.63;2.47;;;21.00;74.10;;;;;;4903564;29;20086;-60
2023/07/15 01:49:05;;;;;;;3.50;2.40;;;21.00;74.10;;;;;;4911625;29;20035;-60
2023/07/15 01:51:32;;;;;;;5.20;2.70;;;20.90;74.20;;;;;;4925529;29;20046;-60
2023/07/15 01:53:58;;;;;;;2.97;2.38;;;20.90;74.20;;;;;;4909830;29;20050;-60
2023/07/15 01:56:24;;;;;;;4.53;2.38;;;20.90;74.40;;;;;;4912023;29;20074;-59
2023/07/15 01:58:50;;;;;;;3.78;2.30;;;20.90;74.80;;;;;;4906674;29;20472;-59
2023/07/15 02:01:16;;;;;;;2.95;2.20;;;20.80;74.80;;;;;;4888523;29;20488;-60
2023/07/15 02:03:42;;;;;;;3.10;2.33;;;20.80;75.40;;;;;;4908899;29;20063;-59
2023/07/15 02:06:08;;;;;;;4.78;2.60;;;20.70;75.50;;;;;;4922519;29;20744;-59
2023/07/15 02:08:34;;;;;;;3.60;2.30;;;20.70;75.50;;;;;;4921505;29;20043;-59
2023/07/15 02:11:00;;;;;;;3.17;2.35;;;20.70;75.70;;;;;;4928153;29;20568;-60
2023/07/15 02:13:26;;;;;;;3.90;2.30;;;20.70;75.80;;;;;;4911374;29;20043;-60
2023/07/15 02:15:52;;;;;;;2.92;2.13;;;20.60;76.00;;;;;;4924041;29;20032;-59
2023/07/15 02:18:24;;;;;;;3.10;2.35;;;20.60;76.30;;;;;;4908703;29;20119;-60
2023/07/15 02:20:49;;;;;;;2.88;2.50;;;20.60;75.90;;;;;;4907311;29;20032;-60
2023/07/15 02:23:16;;;;;;;5.32;2.85;;;20.60;76.00;;;;;;4921688;29;20040;-60
2023/07/15 02:25:45;;;;;;;4.25;2.40;;;20.50;76.20;;;;;;4919042;29;20060;-59
2023/07/15 02:28:11;;;;;;;4.57;2.58;;;20.50;76.50;;;;;;4911441;29;20055;-60
2023/07/15 02:30:37;;;;;;;4.20;2.45;;;20.40;76.70;;;;;;4925662;29;20039;-60
2023/07/15 02:33:06;;;;;;;3.25;2.60;;;20.30;77.10;;;;;;4910811;29;20038;-60
2023/07/15 02:35:33;;;;;;;3.65;2.50;;;20.30;77.50;;;;;;4922732;29;20500;-59
2023/07/15 02:37:59;;;;;;;5.20;3.13;;;20.30;77.50;;;;;;4922883;29;20051;-60
2023/07/15 02:40:25;;;;;;;2.58;2.38;;;20.30;77.60;;;;;;4920713;29;20158;-59
2023/07/15 02:42:52;;;;;;;5.22;2.40;;;20.20;77.90;;;;;;4901581;29;20075;-60
2023/07/15 02:45:18;;;;;;;6.15;2.58;;;20.20;78.10;;;;;;4924320;29;20035;-59
2023/07/15 02:47:44;;;;;;;3.25;2.42;;;20.10;78.40;;;;;;4926072;29;20159;-59
2023/07/15 02:50:11;;;;;;;5.05;3.22;;;20.00;78.90;;;;;;4925785;29;20036;-60
2023/07/15 02:52:38;;;;;;;3.38;2.13;;;20.00;78.80;;;;;;4901239;29;20042;-60
2023/07/15 02:55:09;;;;;;;2.53;2.33;;;20.00;78.80;;;;;;4921770;29;20493;-60
2023/07/15 02:57:35;;;;;;;4.65;2.55;;;20.00;79.10;;;;;;4919396;29;20193;-59
2023/07/15 03:00:03;;;;;;;6.45;2.72;;;20.10;79.60;;;;;;4920851;29;20039;-59
2023/07/15 03:02:29;;;;;;;3.85;2.63;;;20.10;79.10;;;;;;4902741;29;20493;-60
2023/07/15 03:04:55;;;;;;;3.85;2.63;;;20.10;79.00;;;;;;4925498;29;20063;-60
2023/07/15 03:07:21;;;;;;;4.32;2.60;;;20.10;79.40;;;;;;4910544;29;20036;-60
2023/07/15 03:09:46;;;;;;;2.97;2.47;;;20.10;78.90;;;;;;4922752;29;20032;-60
2023/07/15 03:12:12;;;;;;;2.70;2.38;;;20.10;79.30;;;;;;4924462;29;20036;-59
2023/07/15 03:14:41;;;;;;;4.13;2.20;;;20.10;79.30;;;;;;4919565;29;20087;-59
2023/07/15 03:17:08;;;;;;;4.90;2.47;;;20.10;79.60;;;;;;4924079;29;20043;-60
2023/07/15 03:19:34;;;;;;;4.30;2.58;;;20.10;79.60;;;;;;4919658;29;20071;-60
2023/07/15 03:22:00;;;;;;;4.68;2.88;;;20.10;79.60;;;;;;4908911;29;20059;-59
2023/07/15 03:24:26;;;;;;;4.68;2.70;;;20.10;79.60;;;;;;4910399;29;20043;-60
2023/07/15 03:26:55;;;;;;;2.95;2.53;;;20.10;79.60;;;;;;4922908;29;20036;-59
2023/07/15 03:29:22;;;;;;;4.82;2.83;;;20.00;79.90;;;;;;4921659;29;20510;-59
2023/07/15 03:31:49;;;;;;;5.18;2.95;;;20.00;80.30;;;;;;4923187;29;20114;-60
2023/07/15 03:34:14;;;;;;;3.80;2.60;;;20.00;80.50;;;;;;4920500;29;20415;-60
2023/07/15 03:36:40;;;;;;;3.80;2.63;;;20.00;80.60;;;;;;4920681;29;20039;-60
2023/07/15 03:39:06;;;;;;;3.22;2.58;;;20.00;80.70;;;;;;4926676;29;20039;-60
2023/07/15 03:41:34;;;;;;;2.83;2.53;;;20.00;80.50;;;;;;4925560;29;20063;-59
2023/07/15 03:44:00;;;;;;;6.18;3.10;;;20.10;80.60;;;;;;4923762;29;20144;-60
2023/07/15 03:46:26;;;;;;;3.20;2.50;;;20.10;80.90;;;;;;4922696;29;20134;-60
2023/07/15 03:48:52;;;;;;;3.40;2.85;;;20.10;81.10;;;;;;4920970;29;20071;-60
2023/07/15 03:51:17;;;;;;;3.30;2.92;;;20.10;81.10;;;;;;4921380;29;20563;-60
2023/07/15 03:53:43;;;;;;;5.00;3.03;;;20.10;81.20;;;;;;4919802;29;20040;-60
2023/07/15 03:56:09;;;;;;;3.10;2.60;;;20.20;81.50;;;;;;4922770;29;20040;-60
2023/07/15 03:58:35;;;;;;;4.20;2.72;;;20.20;81.60;;;;;;4925023;29;20048;-59
2023/07/15 04:01:00;;;;;;;3.28;2.70;;;20.20;81.60;;;;;;4923743;29;20047;-60
2023/07/15 04:03:26;;;;;;;3.42;2.38;;;20.30;81.30;;;;;;4923046;29;20147;-60
2023/07/15 04:05:52;;;;;;;3.08;2.78;;;20.30;81.40;;;;;;4908804;29;20028;-60
2023/07/15 04:08:18;;;;;;;4.43;2.92;;;20.30;81.40;;;;;;4921252;29;20042;-59
2023/07/15 04:10:46;;;;;;;3.92;2.80;;;20.40;81.80;;;;;;4919857;29;20027;-59
2023/07/15 04:13:13;;;;;;;3.22;2.60;;;20.40;81.50;;;;;;4919377;29;20043;-60
2023/07/15 04:15:39;;;;;;;3.35;2.88;;;20.50;81.30;;;;;;4925455;29;20028;-60
2023/07/15 04:18:05;;;;;;;5.57;2.65;;;20.60;81.30;;;;;;4926370;29;20054;-60
2023/07/15 04:20:31;;;;;;;4.50;2.80;;;20.60;81.00;;;;;;4924224;29;20075;-60
2023/07/15 04:22:57;;;;;;;4.10;2.70;;;20.60;81.30;;;;;;4923559;29;20040;-60
2023/07/15 04:25:22;;;;;;;3.38;2.47;;;20.60;81.40;;;;;;4927004;29;20620;-60
2023/07/15 04:27:48;;;;;;;4.68;2.90;;;20.60;81.80;;;;;;4926501;29;20139;-59
2023/07/15 04:30:14;;;;;;;3.38;2.70;;;20.60;81.60;;;;;;4929292;29;20035;-60
2023/07/15 04:32:40;;;;;;;5.97;2.88;;;20.60;81.70;;;;;;4912503;29;20130;-60
2023/07/15 04:35:06;;;;;;;3.33;2.63;;;20.70;81.50;;;;;;4929166;29;20043;-59
2023/07/15 04:37:31;;;;;;;3.92;2.65;;;20.70;81.70;;;;;;4926960;29;20149;-60
2023/07/15 04:39:57;;;;;;;4.00;2.40;;;20.80;82.00;;;;;;4925633;29;20745;-60
2023/07/15 04:42:23;;;;;;;3.92;2.75;;;20.80;82.00;;;;;;4924192;29;20023;-59
2023/07/15 04:44:49;;;;;;;4.65;2.85;;;20.90;82.00;;;;;;4922289;29;20092;-60
2023/07/15 04:47:14;;;;;;;4.80;3.08;;;20.80;81.90;;;;;;4922415;29;20484;-59
2023/07/15 04:49:40;;;;;;;5.40;2.83;;;20.80;82.10;;;;;;4927095;29;20043;-59
2023/07/15 04:52:06;;;;;;;3.63;2.63;;;20.80;82.50;;;;;;4928504;29;20031;-59
2023/07/15 04:54:32;;;;;;;3.83;2.63;;;20.70;82.70;;;;;;4926991;29;20066;-59
2023/07/15 04:56:58;;;;;;;4.68;3.10;;;20.70;82.70;;;;;;4925715;29;20878;-60
2023/07/15 04:59:24;;;;;;;4.82;2.95;;;20.80;82.90;;;;;;4924529;29;20039;-59
2023/07/15 05:01:49;;;;;;;3.22;2.80;;;20.80;83.00;;;;;;4922476;29;20544;-60
2023/07/15 05:04:15;;;;;;;4.72;3.30;;;20.80;82.70;;;;;;4922271;29;20544;-60
2023/07/15 05:06:41;;;;;;;3.00;2.65;;;20.90;82.30;;;;;;4922754;29;20038;-59
2023/07/15 05:09:07;;;;;;;5.93;3.00;;;20.90;82.00;;;;;;4928450;29;20507;-59
2023/07/15 05:11:33;;;;;;;3.40;2.85;;;21.00;81.10;;;;;;4927888;29;20126;-59
2023/07/15 05:13:59;;;;;;;3.22;2.47;;;21.10;81.30;;;;;;4925963;29;20127;-59
2023/07/15 05:16:26;;;;;;;4.28;2.80;;;21.20;80.40;;;;;;4924290;29;20039;-60
2023/07/15 05:18:52;;;;;;;4.28;2.40;;;21.30;80.60;;;;;;4923248;29;20060;-59
2023/07/15 05:21:17;;;;;;;4.07;2.40;;;21.40;79.80;;;;;;4923868;29;20699;-59
2023/07/15 05:23:43;;;;;;;3.47;2.55;;;21.50;79.80;;;;;;4919010;29;20627;-59
2023/07/15 05:26:09;;;;;;;3.17;2.45;;;21.60;79.70;;;;;;4928687;29;20028;-60
2023/07/15 05:28:35;;;;;;;8.45;2.88;;;21.70;80.00;;;;;;4926332;29;20027;-60
2023/07/15 05:31:02;;;;;;;2.55;2.35;;;21.70;79.50;;;;;;4926222;29;20043;-60
2023/07/15 05:33:28;;;;;;;3.05;2.65;;;21.70;79.30;;;;;;4924531;29;20046;-60
2023/07/15 05:35:55;;;;;;;3.38;2.22;;;21.80;80.10;;;;;;4925835;29;20068;-60
2023/07/15 05:38:25;;;;;;;4.20;2.55;;;21.80;79.40;;;;;;4921324;29;20036;-60
2023/07/15 05:40:51;;;;;;;3.78;3.35;;;21.80;79.00;;;;;;4921022;29;20032;-60
2023/07/15 05:43:19;;;;;;;6.78;2.65;;;21.90;78.50;;;;;;4927786;29;20028;-60
2023/07/15 05:45:45;;;;;;;3.75;2.95;;;21.90;77.20;;;;;;4925942;29;20059;-60
2023/07/15 05:48:11;;;;;;;4.53;3.10;;;22.00;76.80;;;;;;4925428;29;20031;-60
2023/07/15 05:50:37;;;;;;;12.10;7.80;;;22.00;76.40;;;;;;4922291;29;20090;-60
2023/07/15 05:53:04;;;;;;;8.07;4.75;;;22.00;76.50;;;;;;4889459;29;20040;-61
2023/07/15 05:55:34;;;;;;;9.73;4.32;;;22.20;75.70;;;;;;4902573;29;20047;-60
2023/07/15 05:58:01;;;;;;;5.47;3.83;;;22.30;76.00;;;;;;4924190;29;20031;-59
2023/07/15 06:00:28;;;;;;;6.22;3.50;;;22.50;74.60;;;;;;4924292;29;20476;-60
2023/07/15 06:02:54;;;;;;;4.55;3.00;;;22.60;73.80;;;;;;4925582;29;20123;-59
2023/07/15 06:05:19;;;;;;;4.50;3.30;;;22.70;73.30;;;;;;4925890;29;20035;-59
2023/07/15 06:07:46;;;;;;;3.55;2.33;;;22.70;72.70;;;;;;4922204;29;20060;-60
2023/07/15 06:10:12;;;;;;;5.03;3.10;;;22.70;72.60;;;;;;4923580;29;20036;-60
2023/07/15 06:12:37;;;;;;;7.40;3.83;;;22.80;72.80;;;;;;4922426;29;20113;-60
2023/07/15 06:15:04;;;;;;;5.00;3.22;;;22.80;73.00;;;;;;4920628;29;20044;-59
2023/07/15 06:17:30;;;;;;;3.20;2.60;;;22.90;72.90;;;;;;4920378;29;20039;-60
2023/07/15 06:19:56;;;;;;;7.25;3.40;;;22.90;73.80;;;;;;4926082;29;20453;-60
2023/07/15 06:22:22;;;;;;;4.32;3.22;;;23.00;73.50;;;;;;4924577;29;20596;-60
2023/07/15 06:24:47;;;;;;;6.88;3.67;;;23.00;73.70;;;;;;4922906;29;20043;-60
2023/07/15 06:27:13;;;;;;;4.30;3.15;;;22.90;72.90;;;;;;4923337;29;20040;-59
2023/07/15 06:29:39;;;;;;;7.90;3.03;;;23.00;72.90;;;;;;4919112;29;20040;-60
2023/07/15 06:32:05;;;;;;;4.75;3.00;;;22.90;73.00;;;;;;4920763;29;20054;-59
2023/07/15 06:34:31;;;;;;;6.25;2.50;;;22.90;73.20;;;;;;4919741;29;20102;-59
2023/07/15 06:36:57;;;;;;;3.58;2.90;;;23.00;72.90;;;;;;4925363;29;20104;-59
2023/07/15 06:39:23;;;;;;;4.70;2.80;;;23.00;72.90;;;;;;4925152;29;20035;-59
2023/07/15 06:41:52;;;;;;;4.43;2.97;;;23.10;72.50;;;;;;4922327;29;20047;-60
2023/07/15 06:44:18;;;;;;;9.57;3.17;;;23.10;72.60;;;;;;4922639;29;20540;-60
2023/07/15 06:46:44;;;;;;;3.35;2.63;;;23.20;72.70;;;;;;4919864;29;20040;-59
2023/07/15 06:49:09;;;;;;;4.45;2.50;;;23.40;72.30;;;;;;4921311;29;20043;-59
2023/07/15 06:51:35;;;;;;;7.32;2.92;;;23.40;72.00;;;;;;4915928;29;20043;-59
2023/07/15 06:54:01;;;;;;;4.75;2.63;;;23.40;71.50;;;;;;4925781;29;20389;-59
2023/07/15 06:56:28;;;;;;;3.35;2.60;;;23.50;70.90;;;;;;4925802;29;20040;-59
2023/07/15 06:58:54;;;;;;;5.07;2.65;;;23.60;71.60;;;;;;4922967;29;20107;-59
2023/07/15 07:01:20;;;;;;;3.25;2.83;;;23.70;71.10;;;;;;4921731;29;20032;-59
2023/07/15 07:03:46;;;;;;;5.03;2.92;;;23.80;70.60;;;;;;4919438;29;20073;-59
2023/07/15 07:06:12;;;;;;;5.80;2.67;;;23.90;70.60;;;;;;4919772;29;20063;-59
2023/07/15 07:08:38;;;;;;;3.03;2.72;;;23.90;70.10;;;;;;4916667;29;20032;-59
2023/07/15 07:11:03;;;;;;;3.40;2.88;;;23.90;70.10;;;;;;4922880;29;20412;-59
2023/07/15 07:13:29;;;;;;;6.38;2.35;;;23.90;70.00;;;;;;4922029;29;20475;-59
2023/07/15 07:15:57;;;;;;;4.28;2.33;;;24.00;69.60;;;;;;4923195;29;20040;-59
2023/07/15 07:18:23;;;;;;;5.95;3.50;;;24.20;69.20;;;;;;4920703;29;20127;-59
2023/07/15 07:20:49;;;;;;;11.77;5.45;;;24.30;68.70;;;;;;4920817;29;20040;-59
2023/07/15 07:23:15;;;;;;;4.00;3.60;;;24.40;68.30;;;;;;4921042;29;20055;-59
2023/07/15 07:25:42;;;;;;;5.13;2.42;;;24.30;68.20;;;;;;4901212;29;20040;-62
2023/07/15 07:28:07;;;;;;;4.97;2.55;;;24.40;69.10;;;;;;4919675;29;20211;-62
2023/07/15 07:30:33;;;;;;;3.78;2.50;;;24.50;68.40;;;;;;4926430;29;20878;-62
2023/07/15 07:32:59;;;;;;;2.97;2.30;;;24.60;68.40;;;;;;4924139;29;20567;-62
2023/07/15 07:35:25;;;;;;;3.10;2.20;;;24.70;68.00;;;;;;4923350;29;20102;-63
2023/07/15 07:37:50;;;;;;;4.95;2.33;;;24.90;68.20;;;;;;4921168;29;20106;-62
2023/07/15 07:40:16;;;;;;;2.97;2.10;;;25.10;67.20;;;;;;4922554;29;20040;-62
2023/07/15 07:42:42;;;;;;;4.88;2.33;;;25.20;68.30;;;;;;4917644;29;20040;-62
2023/07/15 07:45:16;;;;;;;3.45;2.40;;;25.40;68.30;;;;;;4919843;29;20046;-63
2023/07/15 07:47:42;;;;;;;3.05;2.15;;;25.60;66.80;;;;;;4924607;29;20032;-62
2023/07/15 07:50:08;;;;;;;5.65;2.75;;;25.60;66.40;;;;;;4925011;29;20083;-62
2023/07/15 07:52:34;;;;;;;6.28;2.40;;;25.70;66.80;;;;;;4924717;29;20519;-64
2023/07/15 07:55:01;;;;;;;4.60;2.20;;;25.70;66.60;;;;;;4922502;29;20035;-63
2023/07/15 07:57:26;;;;;;;4.05;2.05;;;25.70;67.30;;;;;;4919997;29;20059;-63
2023/07/15 07:59:52;;;;;;;3.33;2.38;;;25.90;67.10;;;;;;4922366;29;20051;-62
2023/07/15 08:02:18;;;;;;;4.85;2.40;;;26.00;66.50;;;;;;4917672;29;20102;-63
2023/07/15 08:04:44;;;;;;;2.60;2.40;;;26.20;67.10;;;;;;4922451;29;20035;-63
2023/07/15 08:07:10;;;;;;;2.35;2.10;;;26.30;66.40;;;;;;4908212;29;20448;-63
2023/07/15 08:09:35;;;;;;;4.28;2.42;;;26.30;65.70;;;;;;4921018;29;20531;-63
2023/07/15 08:12:01;;;;;;;2.95;2.03;;;26.40;66.90;;;;;;4924222;29;20047;-63
2023/07/15 08:14:27;;;;;;;3.33;2.42;;;26.40;67.90;;;;;;4920883;29;20052;-63
2023/07/15 08:16:53;;;;;;;5.50;2.30;;;26.60;67.20;;;;;;4919172;29;20071;-63
2023/07/15 08:19:18;;;;;;;5.07;2.20;;;26.70;65.40;;;;;;4918631;29;20036;-63
2023/07/15 08:21:44;;;;;;;2.58;1.98;;;26.70;64.70;;;;;;4909231;29;20032;-63
2023/07/15 08:24:10;;;;;;;5.70;2.53;;;26.70;65.30;;;;;;4925404;29;20059;-63
2023/07/15 08:26:35;;;;;;;3.67;2.53;;;26.70;65.60;;;;;;4921328;29;20103;-63
2023/07/15 08:29:02;;;;;;;7.53;2.55;;;26.80;66.40;;;;;;4920283;29;20035;-62
2023/07/15 08:31:28;;;;;;;5.00;2.15;;;27.00;66.50;;;;;;4922193;29;20040;-63
2023/07/15 08:33:54;;;;;;;3.70;2.30;;;27.10;65.10;;;;;;4920639;29;20051;-63
2023/07/15 08:36:21;;;;;;;5.38;2.33;;;27.20;66.00;;;;;;4918701;29;20115;-62
2023/07/15 08:38:47;;;;;;;2.80;2.08;;;27.40;66.20;;;;;;4920694;29;20443;-63
2023/07/15 08:41:14;;;;;;;4.28;2.35;;;27.60;64.80;;;;;;4925055;29;20035;-63
2023/07/15 08:43:43;;;;;;;4.03;2.13;;;27.70;65.00;;;;;;4923703;29;20028;-63
2023/07/15 08:46:24;;;;;;;7.10;2.35;;;27.80;63.30;;;;;;4922339;29;20039;-63
2023/07/15 08:48:49;;;;;;;6.50;2.35;;;27.90;63.70;;;;;;4919868;29;20105;-63
2023/07/15 08:51:15;;;;;;;4.60;2.20;;;27.80;62.50;;;;;;4921249;29;20870;-63
2023/07/15 08:53:43;;;;;;;4.65;2.20;;;27.90;63.60;;;;;;4917404;29;20501;-63
2023/07/15 08:56:10;;;;;;;3.88;1.80;;;28.00;63.20;;;;;;4918618;29;20031;-63
2023/07/15 08:58:36;;;;;;;6.93;1.90;;;28.10;61.80;;;;;;4925151;29;20051;-63
2023/07/15 09:01:02;;;;;;;3.25;1.90;;;28.30;64.60;;;;;;4924319;29;20031;-63
2023/07/15 09:03:28;;;;;;;3.50;2.05;;;28.60;65.30;;;;;;4923563;29;20045;-62
2023/07/15 09:05:53;;;;;;;3.40;1.70;;;28.80;61.40;;;;;;4924722;29;20047;-63
2023/07/15 09:08:19;;;;;;;3.60;2.30;;;29.00;64.20;;;;;;4924844;29;20954;-64
2023/07/15 09:10:55;;;;;;;3.92;2.15;;;29.10;60.40;;;;;;4920937;29;20416;-62
2023/07/15 09:13:26;;;;;;;4.03;1.88;;;29.10;62.20;;;;;;4904080;29;20043;-64
2023/07/15 09:15:57;;;;;;;2.75;2.10;;;29.20;59.10;;;;;;4928556;29;20043;-62
2023/07/15 09:18:23;;;;;;;3.53;2.30;;;29.20;59.80;;;;;;4927758;29;20546;-63
2023/07/15 09:20:50;;;;;;;3.42;1.63;;;29.20;60.20;;;;;;4925429;29;20043;-63
2023/07/15 09:23:16;;;;;;;2.15;1.85;;;29.20;59.60;;;;;;4925739;29;20063;-63
2023/07/15 09:25:52;;;;;;;2.05;1.85;;;29.30;58.80;;;;;;4921743;29;20396;-62
2023/07/15 09:28:18;;;;;;;;;;;29.20;58.80;;;;;;4923218;29;20047;-62
2023/07/15 09:30:43;;;;;;;2.95;2.38;;;29.40;58.50;;;;;;4919809;29;20046;-63
2023/07/15 09:33:29;;;;;;;7.60;2.15;;;29.40;58.70;;;;;;4924819;29;20743;-63
2023/07/15 09:35:55;;;;;;;4.10;2.17;;;29.50;58.70;;;;;;4927307;29;20150;-63
2023/07/15 09:38:21;;;;;;;4.38;1.90;;;29.70;57.60;;;;;;4926891;29;20142;-62
2023/07/15 09:40:48;;;;;;;5.80;1.83;;;29.70;58.00;;;;;;4923374;29;20032;-62
2023/07/15 09:43:14;;;;;;;3.88;1.75;;;29.90;59.10;;;;;;4924358;29;20031;-62
2023/07/15 09:45:41;;;;;;;2.22;1.88;;;30.10;59.10;;;;;;4920531;29;20047;-62
2023/07/15 09:48:12;;;;;;;2.28;1.98;;;30.10;56.60;;;;;;4924877;29;20111;-62
2023/07/15 09:50:42;;;;;;;3.35;1.73;;;30.10;55.70;;;;;;4925357;29;20043;-62
2023/07/15 09:53:08;;;;;;;4.40;2.03;;;30.00;56.90;;;;;;4927799;29;20047;-63
2023/07/15 09:55:36;;;;;;;4.20;1.80;;;30.00;55.90;;;;;;4925277;29;20035;-62
2023/07/15 09:58:23;;;;;;;2.13;1.58;;;30.00;56.50;;;;;;4925216;29;20046;-63
2023/07/15 10:00:52;;;;;;;3.75;1.73;;;30.10;55.40;;;;;;4924317;29;20483;-62
2023/07/15 10:03:29;;;;;;;4.10;2.30;;;30.10;56.00;;;;;;4921523;29;20067;-62
2023/07/15 10:05:55;;;;;;;3.60;2.08;;;30.10;55.80;;;;;;4920097;29;20041;-62
2023/07/15 10:08:21;;;;;;;6.10;1.95;;;30.30;56.60;;;;;;4924443;29;20489;-62
2023/07/15 10:10:48;;;;;;;4.13;1.63;;;30.40;56.60;;;;;;4925547;29;20063;-62
2023/07/15 10:13:15;;;;;;;2.25;1.75;;;30.60;56.10;;;;;;4910686;29;20035;-62
2023/07/15 10:15:44;;;;;;;4.07;2.60;;;30.70;54.60;;;;;;4921744;29;20047;-62
2023/07/15 10:18:20;;;;;;;4.53;1.77;;;30.80;56.10;;;;;;4922946;29;20048;-63
2023/07/15 10:20:56;;;;;;;1.55;1.45;;;30.90;55.00;;;;;;4919848;29;20032;-65
2023/07/15 10:23:29;;;;;;;1.90;1.70;;;30.90;54.20;;;;;;4920014;29;20035;-64
2023/07/15 10:26:02;;;;;;;2.10;1.55;;;31.00;54.00;;;;;;4923152;29;20095;-63
2023/07/15 10:28:34;;;;;;;2.75;1.73;;;31.20;53.20;;;;;;4926716;29;20050;-63
2023/07/15 10:31:11;;;;;;;4.40;1.90;;;31.10;53.20;;;;;;4926311;29;20508;-63
2023/07/15 10:34:03;;;;;;;2.38;1.63;;;31.00;52.60;;;;;;4921680;29;20043;-63
2023/07/15 10:36:35;;;;;;;1.73;1.60;;;31.20;52.00;;;;;;4919515;29;20044;-63
2023/07/15 10:39:19;;;;;;;3.60;1.80;;;31.40;52.00;;;;;;4921654;29;20178;-66
2023/07/15 10:41:47;;;;;;;3.60;1.70;;;31.60;51.80;;;;;;4917665;29;20099;-63
2023/07/15 10:44:20;;;;;;;2.97;1.67;;;31.70;50.60;;;;;;4923228;29;20035;-64
2023/07/15 10:47:03;;;;;;;4.40;1.40;;;31.70;50.60;;;;;;4924494;29;20046;-63
2023/07/15 10:49:30;;;;;;;2.78;1.65;;;31.70;48.20;;;;;;4922133;29;20046;-63
2023/07/15 10:51:57;;;;;;;3.47;1.67;;;31.80;48.50;;;;;;4922460;29;20067;-63
2023/07/15 10:54:27;;;;;;;2.10;1.60;;;31.90;49.80;;;;;;4921257;29;20131;-63
2023/07/15 10:56:53;;;;;;;6.68;1.75;;;32.10;48.70;;;;;;4920006;29;20043;-64
2023/07/15 10:59:20;;;;;;;4.00;1.88;;;32.10;46.80;;;;;;4918813;29;20043;-63
2023/07/15 11:01:46;;;;;;;4.00;1.63;;;31.90;46.40;;;;;;4924142;29;20035;-64
2023/07/15 11:04:13;;;;;;;3.40;1.73;;;31.80;47.80;;;;;;4926039;29;20086;-63
2023/07/15 11:06:38;;;;;;;5.85;1.65;;;31.90;48.30;;;;;;4923633;29;20032;-63
2023/07/15 11:09:14;;;;;;;4.13;1.70;;;32.10;47.50;;;;;;4923119;29;20107;-64
2023/07/15 11:11:40;;;;;;;2.00;1.60;;;32.20;46.90;;;;;;4919873;29;20047;-64
2023/07/15 11:14:21;;;;;;;2.80;1.50;;;32.20;47.30;;;;;;4921341;29;20035;-64
2023/07/15 11:16:50;;;;;;;2.42;1.92;;;32.30;46.90;;;;;;4917296;29;20409;-63
2023/07/15 11:19:16;;;;;;;2.15;1.70;;;32.20;46.10;;;;;;4922930;29;20048;-63
2023/07/15 11:21:45;;;;;;;4.32;1.65;;;32.10;47.20;;;;;;4925163;29;20039;-64
2023/07/15 11:24:12;;;;;;;2.75;1.35;;;32.20;47.40;;;;;;4923809;29;20095;-63
2023/07/15 11:26:42;;;;;;;1.70;1.58;;;32.30;47.40;;;;;;4921086;29;20039;-63
2023/07/15 11:29:14;;;;;;;1.67;1.58;;;32.50;45.70;;;;;;4922316;29;20023;-65
2023/07/15 11:31:45;;;;;;;1.80;1.45;;;32.30;45.00;;;;;;4917495;29;20642;-65
2023/07/15 11:34:11;;;;;;;4.43;1.73;;;32.20;45.20;;;;;;4919667;29;20043;-64
2023/07/15 11:36:40;;;;;;;1.83;1.50;;;32.20;45.30;;;;;;4919437;29;20408;-63
2023/07/15 11:39:06;;;;;;;3.47;1.50;;;32.20;45.80;;;;;;4921498;29;20099;-64
2023/07/15 11:41:38;;;;;;;3.30;1.38;;;32.40;45.30;;;;;;4924802;29;20083;-64
2023/07/15 11:44:15;;;;;;;2.58;1.58;;;32.40;44.50;;;;;;4921064;29;20031;-64
2023/07/15 11:46:45;;;;;;;2.42;1.25;;;32.70;45.80;;;;;;4922123;29;20038;-64
2023/07/15 11:49:12;;;;;;;3.30;1.42;;;32.90;44.40;;;;;;4921357;29;20511;-64
2023/07/15 11:51:42;;;;;;;2.15;1.40;;;33.10;44.40;;;;;;4918751;29;20075;-64
2023/07/15 11:54:15;;;;;;;5.80;3.15;;;33.20;43.40;;;;;;4919067;29;20035;-64
2023/07/15 11:56:45;;;;;;;2.17;1.30;;;33.20;45.00;;;;;;4924503;29;20044;-64
2023/07/15 11:59:24;;;;;;;1.88;1.35;;;33.20;44.50;;;;;;4924050;29;20051;-64
2023/07/15 12:01:49;;;;;;;2.15;1.30;;;33.30;43.30;;;;;;4922819;29;20555;-64
2023/07/15 12:04:16;;;;;;;2.13;1.30;;;33.10;42.60;;;;;;4921796;29;20096;-64
2023/07/15 12:06:47;;;;;;;2.33;1.10;;;32.90;42.50;;;;;;4918125;29;20691;-64
2023/07/15 12:09:14;;;;;;;2.17;1.33;;;32.90;42.80;;;;;;4918733;29;20095;-64
2023/07/15 12:11:40;;;;;;;3.50;1.65;;;32.80;44.00;;;;;;4919088;29;20114;-64
2023/07/15 12:14:07;;;;;;;1.38;1.27;;;32.90;42.70;;;;;;4924737;29;20042;-64
2023/07/15 12:16:36;;;;;;;3.20;1.38;;;32.90;43.80;;;;;;4922853;29;20039;-64
2023/07/15 12:19:03;;;;;;;3.78;1.15;;;33.20;42.00;;;;;;4923028;29;20556;-64
2023/07/15 12:21:30;;;;;;;1.55;1.45;;;33.30;43.30;;;;;;4921080;29;20111;-64
2023/07/15 12:23:57;;;;;;;2.25;1.38;;;33.30;43.60;;;;;;4924696;29;20667;-64
2023/07/15 12:26:23;;;;;;;1.50;1.08;;;33.20;42.10;;;;;;4924955;29;20706;-64
2023/07/15 12:28:49;;;;;;;1.88;1.08;;;33.30;43.90;;;;;;4916976;29;20484;-64
2023/07/15 12:31:16;;;;;;;2.10;1.40;;;33.50;43.40;;;;;;4924888;29;20032;-64
2023/07/15 12:33:43;;;;;;;2.80;1.73;;;33.50;42.20;;;;;;4923434;29;20040;-63
2023/07/15 12:36:14;;;;;;;3.08;1.60;;;33.50;42.10;;;;;;4923385;29;20031;-63
2023/07/15 12:38:40;;;;;;;2.20;1.30;;;33.50;42.20;;;;;;4921067;29;20972;-65
2023/07/15 12:41:07;;;;;;;1.85;1.45;;;33.60;43.70;;;;;;4924656;29;20051;-65
2023/07/15 12:43:33;;;;;;;3.33;1.23;;;33.80;43.30;;;;;;4920603;29;20167;-65
2023/07/15 12:46:00;;;;;;;1.80;1.20;;;34.00;40.80;;;;;;4921691;29;20486;-65
2023/07/15 12:48:26;;;;;;;3.38;2.50;;;34.10;41.30;;;;;;4925312;29;20039;-65